createdAt,value
2023-08-14T00:01:53.664Z,96321.53
2023-08-14T00:04:21.461Z,96315.97
2023-08-14T00:06:49.284Z,96315.78
2023-08-14T00:09:17.067Z,96304.75
2023-08-14T00:11:44.863Z,96310.25
2023-08-14T00:14:12.712Z,96308.66
2023-08-14T00:16:40.521Z,96303.91
2023-08-14T00:19:10.154Z,96299.16
2023-08-14T00:21:38.017Z,96293.66
2023-08-14T00:24:06.609Z,96311.38
2023-08-14T00:26:34.481Z,96298.03
2023-08-14T00:29:02.377Z,96304.69
2023-08-14T00:31:30.381Z,96288.56
2023-08-14T00:33:58.353Z,96287.34
2023-08-14T00:36:27.681Z,96289.69
2023-08-14T00:38:55.533Z,96286.53
2023-08-14T00:41:23.372Z,96275.56
2023-08-14T00:43:52.737Z,96277.13
2023-08-14T00:46:21.669Z,96276.69
2023-08-14T00:48:50.016Z,96263.69
2023-08-14T00:51:18.203Z,96279.34
2023-08-14T00:53:47.458Z,96276.97
2023-08-14T00:56:15.528Z,96276.13
2023-08-14T00:58:43.555Z,96282.78
2023-08-14T01:01:11.538Z,96284.28
2023-08-14T01:03:41.217Z,96288.13
2023-08-14T01:06:09.562Z,96285.31
2023-08-14T01:08:38.023Z,96279.72
2023-08-14T01:11:14.733Z,96285.59
2023-08-14T01:13:47.748Z,96277.31
2023-08-14T01:16:20.499Z,96279.66
2023-08-14T01:18:49.272Z,96276.16
2023-08-14T01:21:35.179Z,96274.19
2023-08-14T01:24:09.021Z,96265.16
2023-08-14T01:26:38.871Z,96275.03
2023-08-14T01:29:06.154Z,96269.53
2023-08-14T01:31:34.012Z,96263.38
2023-08-14T01:34:01.821Z,96259.50
2023-08-14T01:36:37.574Z,96270.03
2023-08-14T01:39:09.494Z,96280.66
2023-08-14T01:41:45.476Z,96289.34
2023-08-14T01:44:18.847Z,96301.75
2023-08-14T01:46:50.182Z,96333.94
2023-08-14T01:49:20.957Z,96324.91
2023-08-14T01:51:49.616Z,96330.94
2023-08-14T01:54:17.474Z,96340.81
2023-08-14T01:56:46.922Z,96344.06
2023-08-14T01:59:14.763Z,96336.31
2023-08-14T02:01:42.548Z,96326.09
2023-08-14T02:04:10.575Z,96304.53
2023-08-14T02:06:38.376Z,96307.63
2023-08-14T02:09:06.503Z,96305.66
2023-08-14T02:11:34.360Z,96299.84
2023-08-14T02:14:03.569Z,96284.16
2023-08-14T02:16:31.520Z,96272.00
2023-08-14T02:18:59.395Z,96269.66
2023-08-14T02:21:27.214Z,96254.38
2023-08-14T02:23:55.016Z,96241.84
2023-08-14T02:26:22.808Z,96226.19
2023-08-14T02:28:50.650Z,96232.84
2023-08-14T02:31:19.900Z,96235.97
2023-08-14T02:33:47.730Z,96239.91
2023-08-14T02:36:15.594Z,96216.38
2023-08-14T02:38:43.417Z,96226.97
2023-08-14T02:41:12.771Z,96215.59
2023-08-14T02:43:40.538Z,96205.78
2023-08-14T02:46:09.754Z,96208.91
2023-08-14T02:48:39.015Z,96209.31
2023-08-14T02:51:07.253Z,96224.59
2023-08-14T02:53:35.071Z,96228.38
2023-08-14T02:56:02.860Z,96208.38
2023-08-14T02:58:31.315Z,96206.06
2023-08-14T03:00:59.174Z,96193.91
2023-08-14T03:03:27.060Z,96192.75
2023-08-14T03:05:59.951Z,96190.84
2023-08-14T03:08:28.536Z,96185.38
2023-08-14T03:10:56.350Z,96190.09
2023-08-14T03:13:24.195Z,96183.84
2023-08-14T03:15:51.995Z,96178.69
2023-08-14T03:18:19.911Z,96181.81
2023-08-14T03:20:47.740Z,96192.75
2023-08-14T03:23:16.972Z,96195.03
2023-08-14T03:25:44.787Z,96199.28
2023-08-14T03:28:12.739Z,96205.91
2023-08-14T03:30:42.719Z,96209.44
2023-08-14T03:33:11.293Z,96206.25
2023-08-14T03:35:39.178Z,96211.69
2023-08-14T03:38:07.718Z,96221.78
2023-08-14T03:40:37.011Z,96222.94
2023-08-14T03:43:05.829Z,96254.97
2023-08-14T03:45:33.696Z,96279.78
2023-08-14T03:48:01.615Z,96277.84
2023-08-14T03:50:29.727Z,96271.75
2023-08-14T03:52:58.198Z,96260.00
2023-08-14T03:55:26.023Z,96261.13
2023-08-14T03:57:55.631Z,96254.97
2023-08-14T04:00:23.499Z,96244.44
2023-08-14T04:02:51.566Z,96249.97
2023-08-14T04:05:19.574Z,96254.69
2023-08-14T04:07:47.400Z,96251.94
2023-08-14T04:10:15.231Z,96253.06
2023-08-14T04:12:43.077Z,96257.38
2023-08-14T04:15:16.182Z,96271.09
2023-08-14T04:17:44.278Z,96268.75
2023-08-14T04:20:13.320Z,96275.81
2023-08-14T04:22:41.288Z,96259.72
2023-08-14T04:25:09.909Z,96267.97
2023-08-14T04:27:38.673Z,96258.94
2023-08-14T04:30:09.420Z,96255.75
2023-08-14T04:32:38.607Z,96261.97
2023-08-14T04:35:07.606Z,96269.03
2023-08-14T04:37:36.212Z,96263.94
2023-08-14T04:40:05.974Z,96267.47
2023-08-14T04:42:34.856Z,96268.19
2023-08-14T04:45:02.813Z,96265.09
2023-08-14T04:47:30.750Z,96269.41
2023-08-14T04:50:01.193Z,96265.88
2023-08-14T04:52:29.999Z,96264.59
2023-08-14T04:54:58.045Z,96266.63
2023-08-14T04:57:29.317Z,96263.75
2023-08-14T04:59:57.940Z,96259.06
2023-08-14T05:02:25.815Z,96256.31
2023-08-14T05:04:55.454Z,96263.00
2023-08-14T05:07:27.264Z,96260.25
2023-08-14T05:09:55.578Z,96254.06
2023-08-14T05:12:23.458Z,96257.66
2023-08-14T05:14:54.743Z,96255.41
2023-08-14T05:17:23.183Z,96253.91
2023-08-14T05:19:52.109Z,96249.25
2023-08-14T05:22:20.879Z,96255.59
2023-08-14T05:24:50.437Z,96265.84
2023-08-14T05:27:18.525Z,96268.69
2023-08-14T05:29:48.714Z,96272.66
2023-08-14T05:32:16.930Z,96266.47
2023-08-14T05:34:45.045Z,96272.38
2023-08-14T05:37:12.890Z,96265.81
2023-08-14T05:39:40.698Z,96266.97
2023-08-14T05:42:09.994Z,96282.28
2023-08-14T05:44:37.825Z,96280.31
2023-08-14T05:47:05.665Z,96274.78
2023-08-14T05:49:33.463Z,96270.84
2023-08-14T05:52:01.293Z,96271.34
2023-08-14T05:54:29.162Z,96263.91
2023-08-14T05:56:56.982Z,96271.06
2023-08-14T05:59:26.198Z,96268.31
2023-08-14T06:01:57.500Z,96274.63
2023-08-14T06:04:28.161Z,96272.78
2023-08-14T06:06:56.277Z,96273.25
2023-08-14T06:09:24.620Z,96273.72
2023-08-14T06:11:52.552Z,96276.13
2023-08-14T06:14:20.398Z,96277.78
2023-08-14T06:16:49.626Z,96280.19
2023-08-14T06:19:17.474Z,96280.28
2023-08-14T06:21:45.329Z,96285.84
2023-08-14T06:24:13.108Z,96275.69
2023-08-14T06:26:40.882Z,96276.63
2023-08-14T06:29:08.749Z,96288.56
2023-08-14T06:31:36.585Z,96289.03
2023-08-14T06:34:06.126Z,96287.13
2023-08-14T06:36:34.564Z,96297.38
2023-08-14T06:39:02.353Z,96296.66
2023-08-14T06:41:30.196Z,96299.03
2023-08-14T06:43:58.022Z,96305.78
2023-08-14T06:46:25.894Z,96307.78
2023-08-14T06:48:53.768Z,96309.41
2023-08-14T06:51:22.964Z,96313.78
2023-08-14T06:53:51.379Z,96305.13
2023-08-14T06:56:20.175Z,96307.88
2023-08-14T06:58:47.995Z,96310.25
2023-08-14T07:01:16.226Z,96305.13
2023-08-14T07:03:44.220Z,96301.16
2023-08-14T07:06:12.044Z,96303.91
2023-08-14T07:08:41.423Z,96309.47
2023-08-14T07:11:09.208Z,96315.78
2023-08-14T07:13:37.051Z,96307.09
2023-08-14T07:16:05.166Z,96298.41
2023-08-14T07:18:32.966Z,96302.38
2023-08-14T07:21:00.783Z,96304.31
2023-08-14T07:23:28.776Z,96298.78
2023-08-14T07:25:59.536Z,96287.31
2023-08-14T07:28:27.590Z,96287.31
2023-08-14T07:30:55.482Z,96289.28
2023-08-14T07:33:23.436Z,96292.78
2023-08-14T07:35:51.249Z,96282.47
2023-08-14T07:38:19.039Z,96283.66
2023-08-14T07:40:46.921Z,96289.94
2023-08-14T07:43:16.125Z,96288.75
2023-08-14T07:45:44.922Z,96296.25
2023-08-14T07:48:12.922Z,96290.38
2023-08-14T07:50:40.845Z,96288.75
2023-08-14T07:53:08.712Z,96284.00
2023-08-14T07:55:36.522Z,96290.75
2023-08-14T07:58:04.857Z,96282.88
2023-08-14T08:00:34.008Z,96279.34
2023-08-14T08:03:01.898Z,96288.81
2023-08-14T08:05:29.820Z,96283.28
2023-08-14T08:07:57.670Z,96274.63
2023-08-14T08:10:26.489Z,96282.50
2023-08-14T08:12:54.274Z,96287.97
2023-08-14T08:15:22.235Z,96294.16
2023-08-14T08:17:51.667Z,96290.88
2023-08-14T08:20:19.582Z,96296.22
2023-08-14T08:22:47.389Z,96306.00
2023-08-14T08:25:15.224Z,96294.03
2023-08-14T08:27:42.981Z,96300.94
2023-08-14T08:30:11.722Z,96302.72
2023-08-14T08:32:40.116Z,96305.56
2023-08-14T08:35:10.402Z,96302.25
2023-08-14T08:37:38.182Z,96308.66
2023-08-14T08:40:07.801Z,96308.16
2023-08-14T08:42:35.702Z,96308.50
2023-08-14T08:45:05.754Z,96304.72
2023-08-14T08:47:36.382Z,96305.09
2023-08-14T08:50:06.729Z,96310.53
2023-08-14T08:52:37.926Z,96306.84
2023-08-14T08:55:07.196Z,96309.13
2023-08-14T08:57:37.644Z,96301.91
2023-08-14T09:00:07.206Z,96297.84
2023-08-14T09:02:35.130Z,96294.56
2023-08-14T09:05:02.998Z,96300.81
2023-08-14T09:07:31.049Z,96310.53
2023-08-14T09:10:01.375Z,96300.78
2023-08-14T09:12:29.211Z,96307.16
2023-08-14T09:15:06.548Z,96311.97
2023-08-14T09:17:34.799Z,96306.59
2023-08-14T09:20:08.767Z,96317.81
2023-08-14T09:22:43.542Z,96308.03
2023-08-14T09:25:13.204Z,96317.75
2023-08-14T09:27:41.322Z,96313.66
2023-08-14T09:30:10.103Z,96313.44
2023-08-14T09:32:38.108Z,96307.53
2023-08-14T09:35:07.356Z,96303.91
2023-08-14T09:37:36.578Z,96302.91
2023-08-14T09:40:16.207Z,96309.63
2023-08-14T09:42:45.588Z,96318.28
2023-08-14T09:45:14.418Z,96317.03
2023-08-14T09:47:44.627Z,96319.75
2023-08-14T09:50:14.786Z,96319.75
2023-08-14T09:52:42.800Z,96321.19
2023-08-14T09:55:13.006Z,96330.84
2023-08-14T09:57:40.832Z,96327.16
2023-08-14T10:00:11.285Z,96329.91
2023-08-14T10:02:41.122Z,96323.34
2023-08-14T10:05:11.557Z,96328.34
2023-08-14T10:07:41.657Z,96318.91
2023-08-14T10:10:12.269Z,96316.72
2023-08-14T10:12:50.067Z,96322.03
2023-08-14T10:15:23.035Z,96316.91
2023-08-14T10:17:56.950Z,96313.72
2023-08-14T10:20:26.619Z,96302.38
2023-08-14T10:22:55.351Z,96300.78
2023-08-14T10:25:25.460Z,96297.56
2023-08-14T10:27:54.650Z,96295.75
2023-08-14T10:30:24.959Z,96290.63
2023-08-14T10:32:53.739Z,96299.13
2023-08-14T10:35:22.494Z,96294.34
2023-08-14T10:38:04.450Z,96292.69
2023-08-14T10:40:53.932Z,96294.78
2023-08-14T10:43:27.446Z,96294.19
2023-08-14T10:45:55.305Z,96294.78
2023-08-14T10:48:23.738Z,96286.78
2023-08-14T10:51:00.472Z,96292.88
2023-08-14T10:53:28.304Z,96297.75
2023-08-14T10:55:57.480Z,96291.34
2023-08-14T10:58:41.940Z,96289.13
2023-08-14T11:01:11.591Z,96283.19
2023-08-14T11:03:58.163Z,96298.25
2023-08-14T11:06:27.440Z,96281.94
2023-08-14T11:09:01.031Z,96274.59
2023-08-14T11:11:30.295Z,96276.28
2023-08-14T11:13:58.518Z,96279.59
2023-08-14T11:16:27.826Z,96278.47
2023-08-14T11:18:58.888Z,96277.53
2023-08-14T11:21:32.252Z,96269.84
2023-08-14T11:24:00.858Z,96269.16
2023-08-14T11:26:32.232Z,96272.06
2023-08-14T11:29:00.172Z,96264.31
2023-08-14T11:31:38.044Z,96264.13
2023-08-14T11:34:09.545Z,96259.72
2023-08-14T11:36:41.946Z,96254.31
2023-08-14T11:39:10.162Z,96253.09
2023-08-14T11:41:39.344Z,96254.13
2023-08-14T11:44:07.351Z,96253.69
2023-08-14T11:46:35.264Z,96251.25
2023-08-14T11:49:03.008Z,96249.25
2023-08-14T11:51:31.989Z,96241.91
2023-08-14T11:54:01.087Z,96243.31
2023-08-14T11:56:29.093Z,96231.34
2023-08-14T11:59:07.148Z,96231.97
2023-08-14T12:01:38.048Z,96234.53
2023-08-14T12:04:07.092Z,96238.81
2023-08-14T12:06:36.190Z,96232.97
2023-08-14T12:09:07.736Z,96230.72
2023-08-14T12:11:35.546Z,96233.19
2023-08-14T12:14:07.166Z,96230.19
2023-08-14T12:16:39.964Z,96238.16
2023-08-14T12:19:10.580Z,96233.41
2023-08-14T12:21:38.546Z,96234.00
2023-08-14T12:24:07.374Z,96235.53
2023-08-14T12:26:41.671Z,96228.84
2023-08-14T12:29:11.351Z,96228.69
2023-08-14T12:31:39.358Z,96236.59
2023-08-14T12:34:07.818Z,96227.00
2023-08-14T12:36:35.927Z,96225.56
2023-08-14T12:39:03.926Z,96211.31
2023-08-14T12:41:32.315Z,96213.97
2023-08-14T12:44:00.206Z,96213.63
2023-08-14T12:46:29.649Z,96218.81
2023-08-14T12:48:57.494Z,96216.91
2023-08-14T12:51:25.299Z,96219.25
2023-08-14T12:53:53.122Z,96219.78
2023-08-14T12:58:49.518Z,96217.63
2023-08-14T13:01:17.937Z,96212.59
2023-08-14T13:03:47.199Z,96197.22
2023-08-14T13:06:15.102Z,96205.31
2023-08-14T13:08:42.884Z,96199.50
2023-08-14T13:11:10.662Z,96198.69
2023-08-14T13:13:38.392Z,96199.31
2023-08-14T13:16:07.426Z,96198.94
2023-08-14T13:18:35.410Z,96202.75
2023-08-14T13:21:04.796Z,96194.16
2023-08-14T13:23:32.708Z,96187.16
2023-08-14T13:26:01.043Z,96189.63
2023-08-14T13:28:28.879Z,96186.28
2023-08-14T13:30:56.825Z,96184.47
2023-08-14T13:33:24.811Z,96185.16
2023-08-14T13:35:52.711Z,96185.31
2023-08-14T13:38:25.117Z,96180.53
2023-08-14T13:40:55.291Z,96191.88
2023-08-14T13:43:26.066Z,96186.19
2023-08-14T13:45:54.309Z,96193.69
2023-08-14T13:48:22.181Z,96182.13
2023-08-14T13:50:49.989Z,96194.63
2023-08-14T13:53:17.821Z,96194.59
2023-08-14T13:55:47.003Z,96197.84
2023-08-14T13:58:14.790Z,96197.09
2023-08-14T14:00:42.945Z,96189.47
2023-08-14T14:03:10.700Z,96187.34
2023-08-14T14:05:38.513Z,96191.84
2023-08-14T14:08:06.616Z,96197.56
2023-08-14T14:10:34.501Z,96191.34
2023-08-14T14:13:05.336Z,96201.44
2023-08-14T14:15:33.289Z,96193.03
2023-08-14T14:18:01.147Z,96188.97
2023-08-14T14:20:29.511Z,96199.41
2023-08-14T14:22:57.390Z,96191.13
2023-08-14T14:25:25.332Z,96186.59
2023-08-14T14:27:53.095Z,96183.94
2023-08-14T14:30:22.233Z,96171.16
2023-08-14T14:32:50.132Z,96175.13
2023-08-14T14:35:18.313Z,96163.91
2023-08-14T14:37:47.454Z,96162.50
2023-08-14T14:40:15.375Z,96168.25
2023-08-14T14:42:43.219Z,96164.16
2023-08-14T14:45:20.604Z,96155.59
2023-08-14T14:47:53.626Z,96155.19
2023-08-14T14:50:29.740Z,96156.91
2023-08-14T14:52:58.340Z,96152.69
2023-08-14T14:55:27.569Z,96152.69
2023-08-14T14:57:56.511Z,96144.72
2023-08-14T15:00:25.516Z,96140.28
2023-08-14T15:02:55.041Z,96142.59
2023-08-14T15:07:53.751Z,96129.84
2023-08-14T15:10:21.745Z,96137.38
2023-08-14T15:12:49.504Z,96124.72
2023-08-14T15:15:17.523Z,96121.59
2023-08-14T15:17:45.608Z,96121.13
2023-08-14T15:20:15.811Z,96132.63
2023-08-14T15:22:44.266Z,96117.97
2023-08-14T15:25:13.616Z,96121.84
2023-08-14T15:27:41.376Z,96114.50
2023-08-14T15:30:10.498Z,96121.03
2023-08-14T15:32:38.739Z,96118.97
2023-08-14T15:35:07.363Z,96110.75
2023-08-14T15:37:36.946Z,96112.25
2023-08-14T15:40:05.865Z,96114.81
2023-08-14T15:42:33.809Z,96106.25
2023-08-14T15:45:01.791Z,96107.63
2023-08-14T15:47:29.661Z,96112.88
2023-08-14T15:49:57.455Z,96111.78
2023-08-14T15:52:29.745Z,96116.59
2023-08-14T15:54:59.816Z,96109.50
2023-08-14T15:57:27.946Z,96116.72
2023-08-14T15:59:55.899Z,96119.63
2023-08-14T16:02:23.786Z,96119.06
2023-08-14T16:04:52.296Z,96122.78
2023-08-14T16:07:20.952Z,96119.53
2023-08-14T16:09:50.237Z,96113.19
2023-08-14T16:12:19.435Z,96118.38
2023-08-14T16:14:47.290Z,96111.34
2023-08-14T16:17:15.154Z,96113.72
2023-08-14T16:19:42.926Z,96112.59
2023-08-14T16:22:10.789Z,96109.84
2023-08-14T16:24:40.259Z,96106.34
2023-08-14T16:27:09.163Z,96106.56
2023-08-14T16:29:38.296Z,96106.00
2023-08-14T16:32:06.565Z,96101.88
2023-08-14T16:34:34.374Z,96093.59
2023-08-14T16:37:02.208Z,96091.28
2023-08-14T16:39:30.236Z,96082.22
2023-08-14T16:41:58.051Z,96080.56
2023-08-14T16:44:25.841Z,96064.38
2023-08-14T16:46:54.997Z,96078.47
2023-08-14T16:49:22.800Z,96076.69
2023-08-14T16:51:50.565Z,96082.22
2023-08-14T16:54:18.389Z,96077.75
2023-08-14T16:56:46.164Z,96074.91
2023-08-14T16:59:14.598Z,96074.50
2023-08-14T17:01:42.717Z,96086.03
2023-08-14T17:04:12.147Z,96083.94
2023-08-14T17:06:40.022Z,96088.84
2023-08-14T17:09:09.487Z,96093.34
2023-08-14T17:11:37.347Z,96093.84
2023-08-14T17:14:05.412Z,96100.16
2023-08-14T17:16:33.282Z,96090.91
2023-08-14T17:19:01.138Z,96097.47
2023-08-14T17:21:30.348Z,96093.72
2023-08-14T17:23:58.114Z,96097.78
2023-08-14T17:26:26.194Z,96099.72
2023-08-14T17:28:53.987Z,96099.13
2023-08-14T17:31:22.440Z,96095.84
2023-08-14T17:33:50.305Z,96094.25
2023-08-14T17:36:18.936Z,96095.97
2023-08-14T17:38:48.077Z,96101.06
2023-08-14T17:41:15.865Z,96096.69
2023-08-14T17:43:43.662Z,96092.91
2023-08-14T17:46:11.530Z,96097.47
2023-08-14T17:48:39.330Z,96098.75
2023-08-14T17:51:07.086Z,96100.47
2023-08-14T17:53:35.349Z,96107.19
2023-08-14T17:56:04.604Z,96100.28
2023-08-14T17:58:32.390Z,96096.94
2023-08-14T18:01:00.442Z,96103.00
2023-08-14T18:03:28.453Z,96099.03
2023-08-14T18:05:56.335Z,96096.50
2023-08-14T18:08:24.192Z,96097.09
2023-08-14T18:10:52.071Z,96093.34
2023-08-14T18:13:21.221Z,96097.13
2023-08-14T18:15:50.939Z,96090.28
2023-08-14T18:18:21.392Z,96099.16
2023-08-14T18:20:52.286Z,96099.34
2023-08-14T18:23:20.751Z,96090.44
2023-08-14T18:25:53.433Z,96101.63
2023-08-14T18:28:22.699Z,96101.78
2023-08-14T18:30:50.661Z,96101.94
2023-08-14T18:33:18.764Z,96095.00
2023-08-14T18:35:46.540Z,96095.59
2023-08-14T18:38:14.309Z,96100.06
2023-08-14T18:40:46.085Z,96103.38
2023-08-14T18:43:14.060Z,96101.47
2023-08-14T18:45:43.334Z,96110.66
2023-08-14T18:48:11.259Z,96107.91
2023-08-14T18:50:39.055Z,96108.00
2023-08-14T18:53:07.530Z,96109.66
2023-08-14T18:55:39.186Z,96114.00
2023-08-14T18:58:07.227Z,96117.25
2023-08-14T19:00:35.912Z,96129.50
2023-08-14T19:03:05.649Z,96125.56
2023-08-14T19:05:33.533Z,96127.53
2023-08-14T19:08:01.349Z,96145.28
2023-08-14T19:10:29.130Z,96138.22
2023-08-14T19:12:56.970Z,96139.41
2023-08-14T19:15:24.920Z,96143.78
2023-08-14T19:17:52.804Z,96142.25
2023-08-14T19:20:22.091Z,96144.63
2023-08-14T19:22:51.011Z,96141.94
2023-08-14T19:25:19.045Z,96148.22
2023-08-14T19:27:46.859Z,96149.06
2023-08-14T19:30:15.216Z,96156.13
2023-08-14T19:32:44.026Z,96155.75
2023-08-14T19:35:11.891Z,96154.56
2023-08-14T19:37:41.156Z,96153.41
2023-08-14T19:40:11.691Z,96153.03
2023-08-14T19:42:40.124Z,96155.34
2023-08-14T19:45:09.754Z,96154.97
2023-08-14T19:47:37.845Z,96152.22
2023-08-14T19:50:07.430Z,96145.94
2023-08-14T19:52:35.569Z,96149.88
2023-08-14T19:55:05.544Z,96152.25
2023-08-14T19:57:33.459Z,96150.66
2023-08-14T20:00:01.774Z,96147.91
2023-08-14T20:02:29.926Z,96149.88
2023-08-14T20:04:57.881Z,96161.31
2023-08-14T20:07:25.995Z,96155.78
2023-08-14T20:09:53.931Z,96166.03
2023-08-14T20:12:25.039Z,96158.94
2023-08-14T20:14:52.903Z,96157.75
2023-08-14T20:17:21.071Z,96148.72
2023-08-14T20:19:50.341Z,96157.34
2023-08-14T20:22:24.300Z,96154.59
2023-08-14T20:24:52.171Z,96153.03
2023-08-14T20:27:22.604Z,96159.31
2023-08-14T20:29:52.084Z,96156.97
2023-08-14T20:32:20.321Z,96160.50
2023-08-14T20:34:51.134Z,96159.28
2023-08-14T20:37:19.071Z,96158.91
2023-08-14T20:39:47.331Z,96152.19
2023-08-14T20:42:15.234Z,96158.06
2023-08-14T20:44:43.272Z,96155.31
2023-08-14T20:47:20.964Z,96154.13
2023-08-14T20:49:48.972Z,96159.63
2023-08-14T20:52:17.047Z,96154.91
2023-08-14T20:54:44.791Z,96159.63
2023-08-14T20:57:12.558Z,96159.25
2023-08-14T20:59:41.322Z,96158.06
2023-08-14T21:02:09.352Z,96160.41
2023-08-14T21:04:39.213Z,96168.69
2023-08-14T21:07:07.200Z,96163.16
2023-08-14T21:09:35.062Z,96163.94
2023-08-14T21:12:02.897Z,96171.41
2023-08-14T21:14:30.682Z,96165.91
2023-08-14T21:16:58.728Z,96163.53
2023-08-14T21:19:26.533Z,96160.38
2023-08-14T21:21:55.675Z,96158.03
2023-08-14T21:24:23.580Z,96160.00
2023-08-14T21:26:51.376Z,96175.31
2023-08-14T21:29:19.165Z,96172.19
2023-08-14T21:31:46.927Z,96169.78
2023-08-14T21:34:17.092Z,96169.00
2023-08-14T21:36:45.219Z,96163.13
2023-08-14T21:39:16.536Z,96162.69
2023-08-14T21:41:44.337Z,96163.81
2023-08-14T21:44:12.070Z,96162.63
2023-08-14T21:46:39.827Z,96163.41
2023-08-14T21:49:07.587Z,96161.06
2023-08-14T21:51:35.426Z,96160.28
2023-08-14T21:54:03.222Z,96154.00
2023-08-14T21:56:32.369Z,96160.25
2023-08-14T21:59:00.137Z,96162.63
2023-08-14T22:01:28.024Z,96157.09
2023-08-14T22:03:57.462Z,96159.84
2023-08-14T22:06:27.232Z,96153.91
2023-08-14T22:08:55.103Z,96157.88
2023-08-14T22:11:22.881Z,96145.25
2023-08-14T22:13:52.054Z,96150.72
2023-08-14T22:16:19.881Z,96150.72
2023-08-14T22:18:47.676Z,96147.56
2023-08-14T22:21:15.423Z,96145.59
2023-08-14T22:23:43.673Z,96154.63
2023-08-14T22:26:11.469Z,96146.72
2023-08-14T22:28:40.267Z,96151.84
2023-08-14T22:31:14.568Z,96155.72
2023-08-14T22:33:42.418Z,96162.41
2023-08-14T22:36:10.807Z,96155.63
2023-08-14T22:38:38.640Z,96149.25
2023-08-14T22:41:06.891Z,96161.44
2023-08-14T22:43:34.687Z,96158.31
2023-08-14T22:46:02.457Z,96163.81
2023-08-14T22:48:31.573Z,96163.78
2023-08-14T22:50:59.339Z,96166.13
2023-08-14T22:53:27.070Z,96167.31
2023-08-14T22:55:54.874Z,96164.19
2023-08-14T22:58:22.633Z,96163.78
2023-08-14T23:00:50.417Z,96171.22
2023-08-14T23:03:18.178Z,96163.75
2023-08-14T23:05:47.335Z,96160.59
2023-08-14T23:08:15.152Z,96165.25
2023-08-14T23:10:43.316Z,96168.31
2023-08-14T23:13:13.041Z,96166.75
2023-08-14T23:15:40.878Z,96167.56
2023-08-14T23:18:08.826Z,96165.63
2023-08-14T23:20:38.726Z,96175.03
2023-08-14T23:23:08.426Z,96165.19
2023-08-14T23:25:36.311Z,96169.53
2023-08-14T23:28:04.444Z,96158.94
2023-08-14T23:30:32.327Z,96161.69
2023-08-14T23:33:00.128Z,96157.38
2023-08-14T23:35:27.999Z,96152.25
2023-08-14T23:37:55.837Z,96157.34
2023-08-14T23:40:24.999Z,96153.03
2023-08-14T23:42:52.765Z,96156.56
2023-08-14T23:45:20.604Z,96155.78
2023-08-14T23:47:48.398Z,96148.63
2023-08-14T23:50:16.402Z,96148.59
2023-08-14T23:52:44.215Z,96146.63
2023-08-14T23:55:12.255Z,96144.31
2023-08-14T23:57:41.487Z,96146.25
